sensor_id;sensor_type;location;lat;lon;timestamp;pressure;altitude;pressure_sealevel;temperature;humidity
18819;BME280;9537;45.594;9.294;2022-09-06T00:00:52;100015.16;;;22.55;69.20
18819;BME280;9537;45.594;9.294;2022-09-06T00:01:54;100015.88;;;22.51;69.33
18819;BME280;9537;45.594;9.294;2022-09-06T00:02:56;100009.41;;;22.52;69.31
18819;BME280;9537;45.594;9.294;2022-09-06T00:03:58;100012.94;;;22.52;69.10
18819;BME280;9537;45.594;9.294;2022-09-06T00:05:00;100020.13;;;22.46;69.38
18819;BME280;9537;45.594;9.294;2022-09-06T00:06:06;100011.22;;;22.46;69.49
18819;BME280;9537;45.594;9.294;2022-09-06T00:07:08;100022.22;;;22.44;69.57
18819;BME280;9537;45.594;9.294;2022-09-06T00:08:09;100015.56;;;22.47;69.53
18819;BME280;9537;45.594;9.294;2022-09-06T00:09:11;100017.44;;;22.46;69.44
18819;BME280;9537;45.594;9.294;2022-09-06T00:10:12;100024.75;;;22.51;69.31
18819;BME280;9537;45.594;9.294;2022-09-06T00:11:16;100016.84;;;22.44;69.35
18819;BME280;9537;45.594;9.294;2022-09-06T00:12:18;100021.91;;;22.41;69.47
18819;BME280;9537;45.594;9.294;2022-09-06T00:13:19;100027.50;;;22.39;69.54
18819;BME280;9537;45.594;9.294;2022-09-06T00:14:21;100030.69;;;22.36;69.76
18819;BME280;9537;45.594;9.294;2022-09-06T00:15:22;100034.69;;;22.34;69.91
18819;BME280;9537;45.594;9.294;2022-09-06T00:16:24;100023.09;;;22.33;69.99
18819;BME280;9537;45.594;9.294;2022-09-06T00:17:26;100027.91;;;22.31;70.18
18819;BME280;9537;45.594;9.294;2022-09-06T00:18:28;100035.41;;;22.29;70.40
18819;BME280;9537;45.594;9.294;2022-09-06T00:19:29;100036.44;;;22.28;70.62
18819;BME280;9537;45.594;9.294;2022-09-06T00:20:32;100032.13;;;22.27;70.80
18819;BME280;9537;45.594;9.294;2022-09-06T00:21:34;100033.75;;;22.28;70.73
18819;BME280;9537;45.594;9.294;2022-09-06T00:22:37;100033.75;;;22.28;70.77
18819;BME280;9537;45.594;9.294;2022-09-06T00:23:38;100029.56;;;22.32;70.51
18819;BME280;9537;45.594;9.294;2022-09-06T00:24:40;100030.09;;;22.34;70.54
18819;BME280;9537;45.594;9.294;2022-09-06T00:25:41;100030.47;;;22.38;70.31
18819;BME280;9537;45.594;9.294;2022-09-06T00:26:43;100033.72;;;22.40;70.12
18819;BME280;9537;45.594;9.294;2022-09-06T00:27:44;100033.72;;;22.40;70.16
18819;BME280;9537;45.594;9.294;2022-09-06T00:28:46;100026.00;;;22.43;69.91
18819;BME280;9537;45.594;9.294;2022-09-06T00:29:48;100026.31;;;22.47;69.74
18819;BME280;9537;45.594;9.294;2022-09-06T00:30:49;100013.66;;;22.47;69.76
18819;BME280;9537;45.594;9.294;2022-09-06T00:31:51;100021.41;;;22.44;69.95
18819;BME280;9537;45.594;9.294;2022-09-06T00:32:54;100016.84;;;22.44;69.94
18819;BME280;9537;45.594;9.294;2022-09-06T00:33:56;100023.84;;;22.45;69.85
18819;BME280;9537;45.594;9.294;2022-09-06T00:34:57;100027.63;;;22.44;69.76
18819;BME280;9537;45.594;9.294;2022-09-06T00:35:59;100025.72;;;22.45;69.87
18819;BME280;9537;45.594;9.294;2022-09-06T00:37:00;100023.63;;;22.47;69.72
18819;BME280;9537;45.594;9.294;2022-09-06T00:38:02;100034.38;;;22.47;69.89
18819;BME280;9537;45.594;9.294;2022-09-06T00:39:03;100030.03;;;22.46;69.86
18819;BME280;9537;45.594;9.294;2022-09-06T00:40:07;100034.38;;;22.47;69.78
18819;BME280;9537;45.594;9.294;2022-09-06T00:41:10;100028.75;;;22.48;69.52
18819;BME280;9537;45.594;9.294;2022-09-06T00:42:12;100030.88;;;22.46;69.45
18819;BME280;9537;45.594;9.294;2022-09-06T00:43:14;100025.72;;;22.45;69.51
18819;BME280;9537;45.594;9.294;2022-09-06T00:45:17;100032.19;;;22.44;69.62
18819;BME280;9537;45.594;9.294;2022-09-06T00:46:21;100033.81;;;22.45;69.38
18819;BME280;9537;45.594;9.294;2022-09-06T00:47:23;100037.31;;;22.45;69.43
18819;BME280;9537;45.594;9.294;2022-09-06T00:48:28;100030.88;;;22.46;69.32
18819;BME280;9537;45.594;9.294;2022-09-06T00:49:31;100038.13;;;22.46;69.32
18819;BME280;9537;45.594;9.294;2022-09-06T00:50:35;100037.56;;;22.44;69.24
18819;BME280;9537;45.594;9.294;2022-09-06T00:51:36;100034.06;;;22.43;69.34
18819;BME280;9537;45.594;9.294;2022-09-06T00:52:39;100035.59;;;22.39;69.33
18819;BME280;9537;45.594;9.294;2022-09-06T00:53:41;100032.91;;;22.39;69.33
18819;BME280;9537;45.594;9.294;2022-09-06T00:54:43;100035.00;;;22.37;69.44
18819;BME280;9537;45.594;9.294;2022-09-06T00:55:44;100030.69;;;22.36;69.44
18819;BME280;9537;45.594;9.294;2022-09-06T00:56:47;100034.19;;;22.37;69.54
18819;BME280;9537;45.594;9.294;2022-09-06T00:57:48;100031.75;;;22.35;69.63
18819;BME280;9537;45.594;9.294;2022-09-06T00:58:51;100025.78;;;22.33;69.75
18819;BME280;9537;45.594;9.294;2022-09-06T00:59:53;100035.47;;;22.34;69.60
18819;BME280;9537;45.594;9.294;2022-09-06T01:00:56;100028.72;;;22.32;69.71
18819;BME280;9537;45.594;9.294;2022-09-06T01:01:58;100029.56;;;22.32;69.77
18819;BME280;9537;45.594;9.294;2022-09-06T01:02:59;100029.78;;;22.31;69.81
18819;BME280;9537;45.594;9.294;2022-09-06T01:04:04;100027.09;;;22.31;69.98
18819;BME280;9537;45.594;9.294;2022-09-06T01:05:06;100023.59;;;22.30;69.78
18819;BME280;9537;45.594;9.294;2022-09-06T01:06:20;100025.69;;;22.28;69.87
18819;BME280;9537;45.594;9.294;2022-09-06T01:07:33;100019.72;;;22.26;69.88
18819;BME280;9537;45.594;9.294;2022-09-06T01:08:54;100016.81;;;22.27;69.93
18819;BME280;9537;45.594;9.294;2022-09-06T01:10:11;100018.09;;;22.25;70.08
18819;BME280;9537;45.594;9.294;2022-09-06T01:11:29;100018.34;;;22.23;69.96
18819;BME280;9537;45.594;9.294;2022-09-06T01:12:41;100018.34;;;22.23;70.16
18819;BME280;9537;45.594;9.294;2022-09-06T01:13:51;100014.81;;;22.23;70.05
18819;BME280;9537;45.594;9.294;2022-09-06T01:15:06;100015.09;;;22.21;70.33
18819;BME280;9537;45.594;9.294;2022-09-06T01:16:12;100018.00;;;22.20;70.22
18819;BME280;9537;45.594;9.294;2022-09-06T01:17:22;100011.59;;;22.21;70.29
18819;BME280;9537;45.594;9.294;2022-09-06T01:18:35;100015.09;;;22.21;70.37
18819;BME280;9537;45.594;9.294;2022-09-06T01:19:54;100021.63;;;22.14;70.75
18819;BME280;9537;45.594;9.294;2022-09-06T01:22:46;100027.38;;;22.17;70.67
18819;BME280;9537;45.594;9.294;2022-09-06T01:24:22;100020.13;;;22.18;70.79
18819;BME280;9537;45.594;9.294;2022-09-06T01:25:37;100024.44;;;22.19;70.75
18819;BME280;9537;45.594;9.294;2022-09-06T01:28:38;100019.28;;;22.17;70.66
18819;BME280;9537;45.594;9.294;2022-09-06T01:29:44;100021.03;;;22.12;70.75
18819;BME280;9537;45.594;9.294;2022-09-06T01:30:52;100028.56;;;22.10;70.93
18819;BME280;9537;45.594;9.294;2022-09-06T01:32:03;100020.13;;;22.06;71.05
18819;BME280;9537;45.594;9.294;2022-09-06T01:33:09;100024.94;;;22.04;70.92
18819;BME280;9537;45.594;9.294;2022-09-06T01:34:20;100030.81;;;22.01;71.08
18819;BME280;9537;45.594;9.294;2022-09-06T01:35:27;100028.94;;;22.01;70.92
18819;BME280;9537;45.594;9.294;2022-09-06T01:36:35;100034.31;;;22.01;71.15
18819;BME280;9537;45.594;9.294;2022-09-06T01:37:40;100025.97;;;22.03;71.14
18819;BME280;9537;45.594;9.294;2022-09-06T01:38:41;100030.56;;;22.02;71.08
18819;BME280;9537;45.594;9.294;2022-09-06T01:39:43;100025.16;;;22.02;71.26
18819;BME280;9537;45.594;9.294;2022-09-06T01:40:44;100017.09;;;22.02;71.20
18819;BME280;9537;45.594;9.294;2022-09-06T01:41:46;100016.06;;;22.03;71.20
18819;BME280;9537;45.594;9.294;2022-09-06T01:42:49;100016.06;;;22.03;71.31
18819;BME280;9537;45.594;9.294;2022-09-06T01:43:54;100020.84;;;22.01;71.38
18819;BME280;9537;45.594;9.294;2022-09-06T01:44:59;100015.22;;;22.03;71.37
18819;BME280;9537;45.594;9.294;2022-09-06T01:46:07;100013.38;;;22.03;71.21
18819;BME280;9537;45.594;9.294;2022-09-06T01:47:21;100016.88;;;22.04;71.31
18819;BME280;9537;45.594;9.294;2022-09-06T01:48:33;100019.31;;;22.05;71.17
18819;BME280;9537;45.594;9.294;2022-09-06T01:49:43;100015.81;;;22.05;71.31
18819;BME280;9537;45.594;9.294;2022-09-06T01:50:57;100004.81;;;22.07;71.11
18819;BME280;9537;45.594;9.294;2022-09-06T01:52:12;100013.72;;;22.07;71.27
18819;BME280;9537;45.594;9.294;2022-09-06T01:53:32;100006.13;;;22.04;71.43
18819;BME280;9537;45.594;9.294;2022-09-06T01:54:45;100004.72;;;22.01;71.50
18819;BME280;9537;45.594;9.294;2022-09-06T01:55:55;99998.53;;;22.01;71.75
18819;BME280;9537;45.594;9.294;2022-09-06T01:57:09;99994.19;;;22.00;71.85
18819;BME280;9537;45.594;9.294;2022-09-06T01:58:28;99996.31;;;21.98;72.02
18819;BME280;9537;45.594;9.294;2022-09-06T01:59:44;100001.94;;;21.96;72.16
18819;BME280;9537;45.594;9.294;2022-09-06T02:00:55;99998.16;;;21.97;72.10
18819;BME280;9537;45.594;9.294;2022-09-06T02:02:03;99997.03;;;21.93;72.03
18819;BME280;9537;45.594;9.294;2022-09-06T02:03:13;100001.59;;;21.93;72.32
18819;BME280;9537;45.594;9.294;2022-09-06T02:04:24;99998.09;;;21.92;72.42
18819;BME280;9537;45.594;9.294;2022-09-06T02:05:30;100001.81;;;21.91;72.60
18819;BME280;9537;45.594;9.294;2022-09-06T02:06:37;100003.94;;;21.89;72.76
18819;BME280;9537;45.594;9.294;2022-09-06T02:07:41;100012.03;;;21.89;72.89
18819;BME280;9537;45.594;9.294;2022-09-06T02:08:47;100005.00;;;21.88;73.01
18819;BME280;9537;45.594;9.294;2022-09-06T02:09:52;100004.19;;;21.88;73.10
18819;BME280;9537;45.594;9.294;2022-09-06T02:10:58;100010.63;;;21.87;73.45
18819;BME280;9537;45.594;9.294;2022-09-06T02:12:01;100006.88;;;21.88;73.42
18819;BME280;9537;45.594;9.294;2022-09-06T02:13:06;100014.94;;;21.88;73.34
18819;BME280;9537;45.594;9.294;2022-09-06T02:14:12;100014.94;;;21.88;73.36
18819;BME280;9537;45.594;9.294;2022-09-06T02:15:19;100006.88;;;21.88;73.37
18819;BME280;9537;45.594;9.294;2022-09-06T02:16:25;100009.34;;;21.89;73.61
18819;BME280;9537;45.594;9.294;2022-09-06T02:17:31;100014.94;;;21.88;73.71
18819;BME280;9537;45.594;9.294;2022-09-06T02:18:39;100011.44;;;21.87;73.79
18819;BME280;9537;45.594;9.294;2022-09-06T02:19:44;100006.06;;;21.87;73.78
18819;BME280;9537;45.594;9.294;2022-09-06T02:20:50;100013.88;;;21.89;73.79
18819;BME280;9537;45.594;9.294;2022-09-06T02:21:53;100003.69;;;21.91;73.73
18819;BME280;9537;45.594;9.294;2022-09-06T02:23:01;100010.94;;;21.90;73.73
18819;BME280;9537;45.594;9.294;2022-09-06T02:24:08;100017.97;;;21.91;73.86
18819;BME280;9537;45.594;9.294;2022-09-06T02:25:15;100010.69;;;21.92;73.87
18819;BME280;9537;45.594;9.294;2022-09-06T02:26:22;100009.66;;;21.93;73.67
18819;BME280;9537;45.594;9.294;2022-09-06T02:27:24;100010.47;;;21.93;73.76
18819;BME280;9537;45.594;9.294;2022-09-06T02:28:27;100015.84;;;21.93;73.67
18819;BME280;9537;45.594;9.294;2022-09-06T02:29:28;100013.16;;;21.93;73.59
18819;BME280;9537;45.594;9.294;2022-09-06T02:30:33;100015.84;;;21.93;73.67
18819;BME280;9537;45.594;9.294;2022-09-06T02:31:38;100017.47;;;21.94;73.78
18819;BME280;9537;45.594;9.294;2022-09-06T02:32:48;100013.75;;;21.95;73.69
18819;BME280;9537;45.594;9.294;2022-09-06T02:33:52;100018.06;;;21.96;73.50
18819;BME280;9537;45.594;9.294;2022-09-06T02:34:55;100016.19;;;21.97;73.55
18819;BME280;9537;45.594;9.294;2022-09-06T02:36:02;100014.31;;;21.97;73.43
18819;BME280;9537;45.594;9.294;2022-09-06T02:37:05;100013.75;;;21.95;73.58
18819;BME280;9537;45.594;9.294;2022-09-06T02:38:07;100013.28;;;21.98;73.50
18819;BME280;9537;45.594;9.294;2022-09-06T02:39:09;100013.28;;;21.98;73.38
18819;BME280;9537;45.594;9.294;2022-09-06T02:40:10;100012.69;;;21.96;73.25
18819;BME280;9537;45.594;9.294;2022-09-06T02:41:14;100005.69;;;21.95;73.38
18819;BME280;9537;45.594;9.294;2022-09-06T02:42:16;100008.38;;;21.95;73.43
18819;BME280;9537;45.594;9.294;2022-09-06T02:43:18;100009.41;;;21.94;73.38
18819;BME280;9537;45.594;9.294;2022-09-06T02:44:19;100013.75;;;21.95;73.23
18819;BME280;9537;45.594;9.294;2022-09-06T02:45:21;100004.03;;;21.94;73.35
18819;BME280;9537;45.594;9.294;2022-09-06T02:46:24;100001.13;;;21.96;73.50
18819;BME280;9537;45.594;9.294;2022-09-06T02:47:26;100002.41;;;21.93;73.38
18819;BME280;9537;45.594;9.294;2022-09-06T02:48:27;100000.78;;;21.92;73.43
18819;BME280;9537;45.594;9.294;2022-09-06T02:49:29;100000.31;;;21.95;73.38
18819;BME280;9537;45.594;9.294;2022-09-06T02:50:30;100001.34;;;21.94;73.34
18819;BME280;9537;45.594;9.294;2022-09-06T02:51:35;100003.22;;;21.94;73.38
18819;BME280;9537;45.594;9.294;2022-09-06T02:52:36;100011.53;;;21.92;73.58
18819;BME280;9537;45.594;9.294;2022-09-06T02:53:38;100017.97;;;21.91;73.77
18819;BME280;9537;45.594;9.294;2022-09-06T02:54:39;100011.53;;;21.92;73.79
18819;BME280;9537;45.594;9.294;2022-09-06T02:55:42;100008.00;;;21.92;73.87
18819;BME280;9537;45.594;9.294;2022-09-06T02:56:43;100015.84;;;21.93;73.71
18819;BME280;9537;45.594;9.294;2022-09-06T02:57:45;100011.53;;;21.92;73.75
18819;BME280;9537;45.594;9.294;2022-09-06T02:58:46;100011.28;;;21.94;73.74
18819;BME280;9537;45.594;9.294;2022-09-06T02:59:49;100015.38;;;21.96;73.62
18819;BME280;9537;45.594;9.294;2022-09-06T03:00:51;100015.97;;;21.98;73.46
18819;BME280;9537;45.594;9.294;2022-09-06T03:01:55;100013.28;;;21.98;73.31
18819;BME280;9537;45.594;9.294;2022-09-06T03:02:56;100012.19;;;21.99;73.20
18819;BME280;9537;45.594;9.294;2022-09-06T03:03:58;100010.09;;;22.01;73.17
18819;BME280;9537;45.594;9.294;2022-09-06T03:04:59;100005.75;;;22.00;73.26
18819;BME280;9537;45.594;9.294;2022-09-06T03:06:02;100011.13;;;22.00;73.26
18819;BME280;9537;45.594;9.294;2022-09-06T03:07:04;100006.59;;;22.01;73.37
18819;BME280;9537;45.594;9.294;2022-09-06T03:08:06;100008.44;;;22.00;73.35
18819;BME280;9537;45.594;9.294;2022-09-06T03:09:06;100003.06;;;22.00;73.35
18819;BME280;9537;45.594;9.294;2022-09-06T03:10:09;100014.88;;;21.99;73.29
18819;BME280;9537;45.594;9.294;2022-09-06T03:11:11;100011.41;;;21.99;73.20
18819;BME280;9537;45.594;9.294;2022-09-06T03:12:13;100014.88;;;21.99;73.33
18819;BME280;9537;45.594;9.294;2022-09-06T03:13:14;100015.38;;;21.96;73.21
18819;BME280;9537;45.594;9.294;2022-09-06T03:14:16;100007.31;;;21.96;73.31
18819;BME280;9537;45.594;9.294;2022-09-06T03:15:19;100005.69;;;21.95;73.24
18819;BME280;9537;45.594;9.294;2022-09-06T03:16:21;100005.91;;;21.94;73.32
18819;BME280;9537;45.594;9.294;2022-09-06T03:17:23;100005.09;;;21.93;73.34
18819;BME280;9537;45.594;9.294;2022-09-06T03:18:27;100005.81;;;21.89;73.68
18819;BME280;9537;45.594;9.294;2022-09-06T03:19:29;100014.13;;;21.87;73.81
18819;BME280;9537;45.594;9.294;2022-09-06T03:20:31;100014.59;;;21.84;73.88
18819;BME280;9537;45.594;9.294;2022-09-06T03:21:32;100009.69;;;21.81;74.04
18819;BME280;9537;45.594;9.294;2022-09-06T03:22:34;100010.50;;;21.81;74.15
18819;BME280;9537;45.594;9.294;2022-09-06T03:23:35;100011.56;;;21.80;74.08
18819;BME280;9537;45.594;9.294;2022-09-06T03:24:39;100008.88;;;21.80;74.01
18819;BME280;9537;45.594;9.294;2022-09-06T03:25:41;100015.88;;;21.81;74.04
18819;BME280;9537;45.594;9.294;2022-09-06T03:26:44;100012.94;;;21.83;73.94
18819;BME280;9537;45.594;9.294;2022-09-06T03:27:45;100013.53;;;21.85;73.78
18819;BME280;9537;45.594;9.294;2022-09-06T03:28:47;100006.53;;;21.84;73.81
18819;BME280;9537;45.594;9.294;2022-09-06T03:29:49;100006.53;;;21.84;73.65
18819;BME280;9537;45.594;9.294;2022-09-06T03:30:51;100010.84;;;21.85;73.62
18819;BME280;9537;45.594;9.294;2022-09-06T03:31:52;100008.16;;;21.85;73.63
18819;BME280;9537;45.594;9.294;2022-09-06T03:32:55;100002.31;;;21.88;73.49
18819;BME280;9537;45.594;9.294;2022-09-06T03:33:56;100012.03;;;21.89;73.42
18819;BME280;9537;45.594;9.294;2022-09-06T03:34:59;100009.34;;;21.89;73.40
18819;BME280;9537;45.594;9.294;2022-09-06T03:36:01;99999.03;;;21.86;73.46
18819;BME280;9537;45.594;9.294;2022-09-06T03:37:03;100008.16;;;21.85;73.60
18819;BME280;9537;45.594;9.294;2022-09-06T03:38:05;100008.41;;;21.84;73.42
18819;BME280;9537;45.594;9.294;2022-09-06T03:39:06;99999.75;;;21.81;73.53
18819;BME280;9537;45.594;9.294;2022-09-06T03:40:09;100005.34;;;21.80;73.60
18819;BME280;9537;45.594;9.294;2022-09-06T03:41:11;99990.28;;;21.79;73.51
18819;BME280;9537;45.594;9.294;2022-09-06T03:42:13;99999.97;;;21.80;73.49
18819;BME280;9537;45.594;9.294;2022-09-06T03:43:16;99997.88;;;21.82;73.14
18819;BME280;9537;45.594;9.294;2022-09-06T03:44:18;99996.47;;;21.79;73.46
18819;BME280;9537;45.594;9.294;2022-09-06T03:45:19;100003.75;;;21.79;73.43
18819;BME280;9537;45.594;9.294;2022-09-06T03:46:21;100009.13;;;21.79;73.60
18819;BME280;9537;45.594;9.294;2022-09-06T03:47:22;100001.84;;;21.79;73.36
18819;BME280;9537;45.594;9.294;2022-09-06T03:48:27;99998.13;;;21.80;73.44
18819;BME280;9537;45.594;9.294;2022-09-06T03:49:28;99997.66;;;21.84;73.23
18819;BME280;9537;45.594;9.294;2022-09-06T03:50:30;100001.63;;;21.81;73.00
18819;BME280;9537;45.594;9.294;2022-09-06T03:51:31;100003.75;;;21.79;73.39
18819;BME280;9537;45.594;9.294;2022-09-06T03:52:33;99993.47;;;21.76;73.41
18819;BME280;9537;45.594;9.294;2022-09-06T03:53:34;99996.84;;;21.71;73.52
18819;BME280;9537;45.594;9.294;2022-09-06T03:54:36;99999.22;;;21.68;73.65
18819;BME280;9537;45.594;9.294;2022-09-06T03:55:37;99997.31;;;21.68;73.57
18819;BME280;9537;45.594;9.294;2022-09-06T03:56:39;99997.59;;;21.67;73.67
18819;BME280;9537;45.594;9.294;2022-09-06T03:57:40;99999.91;;;21.63;73.82
18819;BME280;9537;45.594;9.294;2022-09-06T03:58:42;99997.47;;;21.62;73.88
18819;BME280;9537;45.594;9.294;2022-09-06T03:59:43;100009.03;;;21.62;73.90
18819;BME280;9537;45.594;9.294;2022-09-06T04:00:45;100003.31;;;21.58;73.90
18819;BME280;9537;45.594;9.294;2022-09-06T04:01:46;100009.41;;;21.54;74.08
18819;BME280;9537;45.594;9.294;2022-09-06T04:02:48;100008.56;;;21.53;74.21
18819;BME280;9537;45.594;9.294;2022-09-06T04:03:51;100014.22;;;21.52;74.25
18819;BME280;9537;45.594;9.294;2022-09-06T04:04:53;100017.72;;;21.52;74.21
18819;BME280;9537;45.594;9.294;2022-09-06T04:05:55;100018.25;;;21.54;74.17
18819;BME280;9537;45.594;9.294;2022-09-06T04:06:57;100013.72;;;21.55;73.99
18819;BME280;9537;45.594;9.294;2022-09-06T04:07:58;100019.09;;;21.55;74.18
18819;BME280;9537;45.594;9.294;2022-09-06T04:09:00;100020.13;;;21.54;74.08
18819;BME280;9537;45.594;9.294;2022-09-06T04:10:01;100018.03;;;21.56;74.10
18819;BME280;9537;45.594;9.294;2022-09-06T04:11:04;100015.09;;;21.57;74.05
18819;BME280;9537;45.594;9.294;2022-09-06T04:12:05;100015.09;;;21.57;74.01
18819;BME280;9537;45.594;9.294;2022-09-06T04:13:07;100014.75;;;21.54;74.21
18819;BME280;9537;45.594;9.294;2022-09-06T04:14:08;100015.84;;;21.53;74.39
18819;BME280;9537;45.594;9.294;2022-09-06T04:15:11;100016.53;;;21.48;74.77
18819;BME280;9537;45.594;9.294;2022-09-06T04:16:12;100013.03;;;21.48;74.73
18819;BME280;9537;45.594;9.294;2022-09-06T04:17:14;100015.38;;;21.44;74.98
18819;BME280;9537;45.594;9.294;2022-09-06T04:18:15;100013.97;;;21.42;75.01
18819;BME280;9537;45.594;9.294;2022-09-06T04:19:19;100010.22;;;21.43;75.07
18819;BME280;9537;45.594;9.294;2022-09-06T04:20:20;100017.47;;;21.42;74.86
18819;BME280;9537;45.594;9.294;2022-09-06T04:21:22;100012.91;;;21.43;74.85
18819;BME280;9537;45.594;9.294;2022-09-06T04:22:23;100019.81;;;21.39;74.71
18819;BME280;9537;45.594;9.294;2022-09-06T04:23:26;100016.66;;;21.42;74.81
18819;BME280;9537;45.594;9.294;2022-09-06T04:24:28;100019.81;;;21.39;74.76
18819;BME280;9537;45.594;9.294;2022-09-06T04:25:30;100019.34;;;21.42;74.80
18819;BME280;9537;45.594;9.294;2022-09-06T04:26:31;100025.53;;;21.42;74.80
18819;BME280;9537;45.594;9.294;2022-09-06T04:27:33;100025.53;;;21.42;74.82
18819;BME280;9537;45.594;9.294;2022-09-06T04:28:34;100020.97;;;21.43;74.74
18819;BME280;9537;45.594;9.294;2022-09-06T04:29:36;100024.25;;;21.45;74.68
18819;BME280;9537;45.594;9.294;2022-09-06T04:30:37;100022.16;;;21.47;74.57
18819;BME280;9537;45.594;9.294;2022-09-06T04:31:39;100019.22;;;21.48;74.26
18819;BME280;9537;45.594;9.294;2022-09-06T04:32:40;100023.78;;;21.48;74.20
18819;BME280;9537;45.594;9.294;2022-09-06T04:33:42;100020.50;;;21.46;74.31
18819;BME280;9537;45.594;9.294;2022-09-06T04:34:45;100020.16;;;21.42;74.54
18819;BME280;9537;45.594;9.294;2022-09-06T04:35:47;100027.75;;;21.45;74.23
18819;BME280;9537;45.594;9.294;2022-09-06T04:36:49;100019.69;;;21.45;74.25
18819;BME280;9537;45.594;9.294;2022-09-06T04:37:51;100017.00;;;21.45;74.40
18819;BME280;9537;45.594;9.294;2022-09-06T04:38:52;100012.69;;;21.44;74.40
18819;BME280;9537;45.594;9.294;2022-09-06T04:39:54;100011.03;;;21.43;74.30
18819;BME280;9537;45.594;9.294;2022-09-06T04:40:55;100018.66;;;21.46;74.39
18819;BME280;9537;45.594;9.294;2022-09-06T04:41:57;100015.72;;;21.48;74.16
18819;BME280;9537;45.594;9.294;2022-09-06T04:42:58;100015.97;;;21.46;74.28
18819;BME280;9537;45.594;9.294;2022-09-06T04:44:01;100019.47;;;21.47;74.32
18819;BME280;9537;45.594;9.294;2022-09-06T04:45:02;100018.41;;;21.48;74.23
18819;BME280;9537;45.594;9.294;2022-09-06T04:46:08;100019.69;;;21.45;74.18
18819;BME280;9537;45.594;9.294;2022-09-06T04:47:12;100023.91;;;21.41;74.08
18819;BME280;9537;45.594;9.294;2022-09-06T04:48:14;100028.09;;;21.37;74.16
18819;BME280;9537;45.594;9.294;2022-09-06T04:49:15;100027.72;;;21.33;74.31
18819;BME280;9537;45.594;9.294;2022-09-06T04:50:19;100030.06;;;21.30;74.55
18819;BME280;9537;45.594;9.294;2022-09-06T04:51:20;100034.03;;;21.27;74.69
18819;BME280;9537;45.594;9.294;2022-09-06T04:52:22;100027.59;;;21.28;74.72
18819;BME280;9537;45.594;9.294;2022-09-06T04:53:23;100031.00;;;21.24;74.89
18819;BME280;9537;45.594;9.294;2022-09-06T04:54:25;100036.84;;;21.21;75.12
18819;BME280;9537;45.594;9.294;2022-09-06T04:55:26;100030.41;;;21.22;75.14
18819;BME280;9537;45.594;9.294;2022-09-06T04:56:30;100029.81;;;21.20;75.36
18819;BME280;9537;45.594;9.294;2022-09-06T04:57:32;100034.84;;;21.16;75.82
18819;BME280;9537;45.594;9.294;2022-09-06T04:58:33;100036.72;;;21.15;75.77
18819;BME280;9537;45.594;9.294;2022-09-06T04:59:36;100025.50;;;21.19;75.52
18819;BME280;9537;45.594;9.294;2022-09-06T05:00:37;100033.56;;;21.19;75.66
18819;BME280;9537;45.594;9.294;2022-09-06T05:01:41;100030.88;;;21.19;75.83
18819;BME280;9537;45.594;9.294;2022-09-06T05:02:43;100030.28;;;21.17;75.96
18819;BME280;9537;45.594;9.294;2022-09-06T05:03:45;100037.66;;;21.21;75.74
18819;BME280;9537;45.594;9.294;2022-09-06T05:04:46;100030.88;;;21.19;75.93
18819;BME280;9537;45.594;9.294;2022-09-06T05:05:49;100042.69;;;21.18;75.86
18819;BME280;9537;45.594;9.294;2022-09-06T05:06:59;100044.53;;;21.17;75.97
18819;BME280;9537;45.594;9.294;2022-09-06T05:08:02;100039.06;;;21.12;75.90
18819;BME280;9537;45.594;9.294;2022-09-06T05:09:03;100040.69;;;21.13;75.96
18819;BME280;9537;45.594;9.294;2022-09-06T05:10:05;100036.84;;;21.09;75.98
18819;BME280;9537;45.594;9.294;2022-09-06T05:11:07;100043.59;;;21.11;76.03
18819;BME280;9537;45.594;9.294;2022-09-06T05:12:10;100046.06;;;21.13;76.13
18819;BME280;9537;45.594;9.294;2022-09-06T05:13:11;100042.56;;;21.12;76.11
18819;BME280;9537;45.594;9.294;2022-09-06T05:14:13;100039.16;;;21.17;75.97
18819;BME280;9537;45.594;9.294;2022-09-06T05:15:15;100045.81;;;21.14;75.99
18819;BME280;9537;45.594;9.294;2022-09-06T05:16:17;100044.66;;;21.10;76.24
18819;BME280;9537;45.594;9.294;2022-09-06T05:17:18;100043.84;;;21.10;76.16
18819;BME280;9537;45.594;9.294;2022-09-06T05:18:20;100038.94;;;21.07;76.25
18819;BME280;9537;45.594;9.294;2022-09-06T05:19:21;100041.63;;;21.07;76.54
18819;BME280;9537;45.594;9.294;2022-09-06T05:20:23;100044.31;;;21.07;76.42
18819;BME280;9537;45.594;9.294;2022-09-06T05:21:26;100039.97;;;21.06;76.48
18819;BME280;9537;45.594;9.294;2022-09-06T05:22:28;100047.22;;;21.05;76.55
18819;BME280;9537;45.594;9.294;2022-09-06T05:23:28;100047.59;;;21.09;76.30
18819;BME280;9537;45.594;9.294;2022-09-06T05:24:30;100047.59;;;21.09;76.46
18819;BME280;9537;45.594;9.294;2022-09-06T05:25:32;100048.41;;;21.09;76.26
18819;BME280;9537;45.594;9.294;2022-09-06T05:26:34;100051.66;;;21.11;76.31
18819;BME280;9537;45.594;9.294;2022-09-06T05:27:35;100046.66;;;21.15;76.08
18819;BME280;9537;45.594;9.294;2022-09-06T05:28:37;100049.91;;;21.17;75.93
18819;BME280;9537;45.594;9.294;2022-09-06T05:29:38;100047.22;;;21.17;75.90
18819;BME280;9537;45.594;9.294;2022-09-06T05:30:40;100053.19;;;21.19;75.55
18819;BME280;9537;45.594;9.294;2022-09-06T05:31:41;100050.28;;;21.21;75.80
18819;BME280;9537;45.594;9.294;2022-09-06T05:32:43;100058.34;;;21.21;75.47
18819;BME280;9537;45.594;9.294;2022-09-06T05:33:44;100053.19;;;21.19;75.92
18819;BME280;9537;45.594;9.294;2022-09-06T05:34:46;100052.84;;;21.15;76.11
18819;BME280;9537;45.594;9.294;2022-09-06T05:35:47;100047.94;;;21.12;76.13
18819;BME280;9537;45.594;9.294;2022-09-06T05:36:51;100056.00;;;21.12;76.35
18819;BME280;9537;45.594;9.294;2022-09-06T05:37:53;100057.88;;;21.12;76.57
18819;BME280;9537;45.594;9.294;2022-09-06T05:38:55;100059.16;;;21.09;76.50
18819;BME280;9537;45.594;9.294;2022-09-06T05:39:56;100056.22;;;21.11;76.74
18819;BME280;9537;45.594;9.294;2022-09-06T05:40:59;100053.53;;;21.11;76.60
18819;BME280;9537;45.594;9.294;2022-09-06T05:42:00;100059.72;;;21.11;76.75